createdAt,value
2019-02-21T00:00:37.873Z,67.75
2019-02-21T00:03:08.958Z,67.91
2019-02-21T00:05:40.556Z,67.95
2019-02-21T00:08:10.804Z,68.06
2019-02-21T00:10:41.418Z,67.99
2019-02-21T00:13:11.670Z,68.24
2019-02-21T00:15:41.903Z,68.28
2019-02-21T00:18:12.156Z,67.98
2019-02-21T00:20:42.402Z,67.97
2019-02-21T00:23:13.025Z,68.00
2019-02-21T00:25:43.257Z,68.32
2019-02-21T00:28:13.499Z,67.92
2019-02-21T00:30:43.732Z,68.04
2019-02-21T00:33:13.976Z,68.17
2019-02-21T00:35:45.377Z,68.35
2019-02-21T00:38:15.615Z,68.32
2019-02-21T00:40:45.846Z,68.18
2019-02-21T00:43:16.095Z,68.03
2019-02-21T00:45:46.331Z,68.34
2019-02-21T00:48:16.569Z,68.10
2019-02-21T00:50:46.812Z,68.39
2019-02-21T00:53:17.075Z,68.18
2019-02-21T00:55:47.309Z,68.31
2019-02-21T00:58:17.555Z,68.13
2019-02-21T01:00:47.810Z,68.19
2019-02-21T01:03:18.045Z,68.28
2019-02-21T01:05:48.292Z,68.37
2019-02-21T01:08:18.535Z,68.23
2019-02-21T01:10:48.770Z,68.29
2019-02-21T01:13:19.010Z,68.35
2019-02-21T01:15:49.251Z,68.54
2019-02-21T01:18:19.491Z,68.54
2019-02-21T01:20:49.726Z,68.30
2019-02-21T01:23:19.964Z,68.32
2019-02-21T01:25:50.198Z,68.29
2019-02-21T01:28:20.440Z,68.28
2019-02-21T01:30:57.098Z,68.05
2019-02-21T01:33:22.614Z,67.99
2019-02-21T01:35:52.856Z,68.19
2019-02-21T01:38:23.161Z,68.19
2019-02-21T01:40:53.402Z,68.34
2019-02-21T01:43:23.636Z,68.43
2019-02-21T01:45:54.811Z,68.42
2019-02-21T01:48:25.037Z,68.65
2019-02-21T01:50:55.273Z,68.84
2019-02-21T01:53:25.509Z,68.85
2019-02-21T01:55:55.774Z,68.95
2019-02-21T01:58:26.009Z,69.07
2019-02-21T02:00:56.264Z,68.78
2019-02-21T02:03:26.866Z,68.97
2019-02-21T02:05:57.119Z,69.12
2019-02-21T02:08:27.355Z,69.05
2019-02-21T02:10:57.608Z,68.86
2019-02-21T02:13:27.856Z,69.01
2019-02-21T02:15:58.112Z,68.87
2019-02-21T02:18:28.351Z,68.93
2019-02-21T02:20:58.600Z,68.78
2019-02-21T02:23:28.839Z,69.20
2019-02-21T02:25:59.094Z,69.12
2019-02-21T02:28:29.328Z,69.27
2019-02-21T02:30:59.578Z,69.11
2019-02-21T02:33:29.814Z,68.97
2019-02-21T02:36:00.070Z,69.15
2019-02-21T02:38:30.309Z,69.01
2019-02-21T02:41:00.570Z,68.97
2019-02-21T02:43:30.809Z,68.88
2019-02-21T02:46:01.063Z,68.92
2019-02-21T02:48:31.483Z,68.74
2019-02-21T02:51:01.734Z,68.63
2019-02-21T02:53:31.965Z,68.97
2019-02-21T02:56:02.220Z,68.87
2019-02-21T02:58:32.455Z,68.99
2019-02-21T03:01:02.698Z,69.01
2019-02-21T03:03:32.937Z,68.95
2019-02-21T03:06:03.225Z,68.88
2019-02-21T03:08:33.434Z,68.57
2019-02-21T03:11:03.685Z,68.60
2019-02-21T03:13:33.924Z,68.76
2019-02-21T03:16:05.247Z,68.42
2019-02-21T03:18:35.484Z,68.36
2019-02-21T03:21:05.734Z,68.41
2019-02-21T03:23:35.976Z,68.46
2019-02-21T03:26:06.237Z,68.43
2019-02-21T03:28:36.462Z,68.55
2019-02-21T03:31:06.735Z,68.62
2019-02-21T03:33:38.024Z,68.58
2019-02-21T03:36:08.286Z,68.84
2019-02-21T03:38:38.548Z,68.79
2019-02-21T03:41:08.797Z,68.83
2019-02-21T03:43:39.020Z,68.66
2019-02-21T03:46:09.267Z,68.93
2019-02-21T03:48:39.502Z,68.89
2019-02-21T03:51:09.756Z,68.75
2019-02-21T03:53:39.995Z,68.97
2019-02-21T03:56:10.245Z,68.63
2019-02-21T03:58:40.493Z,68.86
2019-02-21T04:01:10.764Z,68.96
2019-02-21T04:03:41.009Z,68.77
2019-02-21T04:06:11.288Z,68.62
2019-02-21T04:08:41.520Z,68.63
2019-02-21T04:11:11.772Z,68.64
2019-02-21T04:13:42.010Z,68.83
2019-02-21T04:16:12.265Z,68.81
2019-02-21T04:18:42.499Z,68.78
2019-02-21T04:21:12.748Z,69.07
2019-02-21T04:23:43.362Z,69.22
2019-02-21T04:26:13.618Z,69.12
2019-02-21T04:28:45.841Z,69.35
2019-02-21T04:31:15.806Z,69.16
2019-02-21T04:33:46.043Z,69.16
2019-02-21T04:36:16.290Z,69.36
2019-02-21T04:38:46.522Z,69.39
2019-02-21T04:41:16.788Z,69.20
2019-02-21T04:43:47.022Z,69.37
2019-02-21T04:46:17.274Z,69.35
2019-02-21T04:48:47.505Z,69.21
2019-02-21T04:51:17.760Z,69.50
2019-02-21T04:53:47.995Z,69.68
2019-02-21T04:56:18.246Z,69.88
2019-02-21T04:58:48.483Z,70.16
2019-02-21T05:01:21.776Z,70.49
2019-02-21T05:03:52.015Z,70.79
2019-02-21T05:06:22.268Z,71.07
2019-02-21T05:08:52.495Z,70.87
2019-02-21T05:11:22.750Z,70.79
2019-02-21T05:13:52.988Z,70.75
2019-02-21T05:16:23.237Z,70.52
2019-02-21T05:18:53.474Z,70.83
2019-02-21T05:21:23.735Z,70.58
2019-02-21T05:23:53.974Z,70.45
2019-02-21T05:26:28.812Z,70.52
2019-02-21T05:29:00.617Z,70.65
2019-02-21T05:31:38.430Z,71.05
2019-02-21T05:34:10.309Z,71.19
2019-02-21T05:36:42.201Z,71.62
2019-02-21T05:39:14.099Z,72.39
2019-02-21T05:41:54.793Z,72.22
2019-02-21T05:44:43.194Z,72.32
2019-02-21T05:47:32.189Z,72.49
2019-02-21T05:50:19.083Z,72.39
2019-02-21T05:52:56.928Z,72.71
2019-02-21T05:55:44.973Z,72.87
2019-02-21T05:58:16.849Z,73.04
2019-02-21T06:00:51.431Z,73.31
2019-02-21T06:03:23.302Z,73.13
2019-02-21T06:05:55.204Z,73.42
2019-02-21T06:08:35.987Z,73.36
2019-02-21T06:11:13.848Z,73.73
2019-02-21T06:13:57.653Z,74.06
2019-02-21T06:16:33.039Z,74.04
2019-02-21T06:19:04.977Z,74.31
2019-02-21T06:21:53.320Z,74.31
2019-02-21T06:24:31.187Z,74.45
2019-02-21T06:27:12.456Z,74.46
2019-02-21T06:29:59.672Z,75.00
2019-02-21T06:32:29.927Z,75.08
2019-02-21T06:35:02.684Z,75.25
2019-02-21T06:37:32.124Z,75.12
2019-02-21T06:40:02.529Z,75.49
2019-02-21T06:42:32.785Z,75.75
2019-02-21T06:45:03.033Z,75.64
2019-02-21T06:47:33.273Z,75.60
2019-02-21T06:50:03.887Z,75.79
2019-02-21T06:52:34.139Z,75.53
2019-02-21T06:55:05.303Z,75.43
2019-02-21T06:57:35.557Z,76.04
2019-02-21T07:00:06.371Z,75.73
2019-02-21T07:02:36.884Z,76.26
2019-02-21T07:05:07.270Z,76.39
2019-02-21T07:07:37.532Z,76.13
2019-02-21T07:10:08.145Z,75.78
2019-02-21T07:12:38.403Z,76.24
2019-02-21T07:15:10.683Z,75.96
2019-02-21T07:17:48.792Z,76.02
2019-02-21T07:20:13.252Z,76.05
2019-02-21T07:22:43.509Z,75.70
2019-02-21T07:25:32.473Z,75.63
2019-02-21T07:28:11.295Z,75.63
2019-02-21T07:30:34.714Z,75.19
2019-02-21T07:33:04.975Z,75.42
2019-02-21T07:35:35.213Z,75.28
2019-02-21T07:38:05.475Z,75.71
2019-02-21T07:40:35.720Z,75.13
2019-02-21T07:43:06.100Z,75.23
2019-02-21T07:45:36.651Z,75.27
2019-02-21T07:48:07.171Z,75.52
2019-02-21T07:50:37.412Z,75.22
2019-02-21T07:53:07.672Z,74.91
2019-02-21T07:55:38.751Z,75.12
2019-02-21T07:58:09.005Z,75.20
2019-02-21T08:00:39.247Z,75.08
2019-02-21T08:03:09.519Z,74.98
2019-02-21T08:05:39.745Z,74.75
2019-02-21T08:08:10.008Z,74.62
2019-02-21T08:10:40.252Z,74.68
2019-02-21T08:13:10.525Z,75.35
2019-02-21T08:15:40.765Z,74.99
2019-02-21T08:18:11.013Z,75.20
2019-02-21T08:20:41.358Z,74.79
2019-02-21T08:23:11.577Z,74.96
2019-02-21T08:25:41.829Z,74.80
2019-02-21T08:28:12.236Z,74.55
2019-02-21T08:30:42.484Z,75.00
2019-02-21T08:33:26.119Z,74.54
2019-02-21T08:35:57.925Z,74.63
2019-02-21T08:38:32.856Z,74.34
2019-02-21T08:41:03.350Z,74.55
2019-02-21T08:43:40.639Z,74.32
2019-02-21T08:46:12.026Z,73.88
2019-02-21T08:48:44.153Z,74.11
2019-02-21T08:51:18.360Z,74.13
2019-02-21T08:53:58.062Z,74.14
2019-02-21T08:56:30.221Z,74.71
2019-02-21T08:59:00.496Z,75.22
2019-02-21T09:01:30.753Z,75.24
2019-02-21T09:04:09.824Z,75.13
2019-02-21T09:06:32.940Z,75.73
2019-02-21T09:09:04.445Z,75.58
2019-02-21T09:11:39.976Z,75.89
2019-02-21T09:14:12.538Z,76.06
2019-02-21T09:17:01.219Z,76.08
2019-02-21T09:19:31.687Z,76.12
2019-02-21T09:22:03.754Z,76.42
2019-02-21T09:24:41.291Z,76.63
2019-02-21T09:27:10.650Z,77.00
2019-02-21T09:29:42.105Z,76.97
2019-02-21T09:32:21.440Z,76.87
2019-02-21T09:34:54.830Z,76.51
2019-02-21T09:37:28.803Z,76.88
2019-02-21T09:40:02.944Z,76.86
2019-02-21T09:42:33.373Z,77.21
2019-02-21T09:45:05.044Z,77.25
2019-02-21T09:47:35.283Z,77.24
2019-02-21T09:50:07.376Z,77.68
2019-02-21T09:52:37.616Z,77.74
2019-02-21T09:55:10.499Z,77.81
2019-02-21T09:57:41.917Z,77.85
2019-02-21T10:00:15.570Z,77.63
2019-02-21T10:02:48.147Z,78.20
2019-02-21T10:05:20.941Z,77.52
2019-02-21T10:07:51.371Z,77.69
2019-02-21T10:10:22.974Z,77.25
2019-02-21T10:12:53.646Z,76.74
2019-02-21T10:15:24.009Z,77.13
2019-02-21T10:17:54.394Z,77.36
2019-02-21T10:20:24.942Z,77.43
2019-02-21T10:22:55.185Z,77.02
2019-02-21T10:25:30.136Z,76.68
2019-02-21T10:28:00.669Z,76.37
2019-02-21T10:30:32.718Z,75.93
2019-02-21T10:33:02.965Z,76.41
2019-02-21T10:35:34.899Z,76.69
2019-02-21T10:38:08.188Z,76.56
2019-02-21T10:40:38.444Z,76.60
2019-02-21T10:43:10.946Z,76.79
2019-02-21T10:45:49.160Z,77.65
2019-02-21T10:48:22.273Z,77.49
2019-02-21T10:50:53.734Z,77.19
2019-02-21T10:53:27.742Z,77.14
2019-02-21T10:56:01.428Z,77.15
2019-02-21T10:58:33.910Z,77.64
2019-02-21T11:01:04.179Z,76.62
2019-02-21T11:03:40.188Z,76.75
2019-02-21T11:06:14.622Z,76.67
2019-02-21T11:08:44.941Z,76.67
2019-02-21T11:11:17.287Z,76.45
2019-02-21T11:13:49.399Z,77.18
2019-02-21T11:16:21.672Z,77.63
2019-02-21T11:18:51.982Z,77.87
2019-02-21T11:21:22.522Z,77.81
2019-02-21T11:23:52.775Z,78.16
2019-02-21T11:26:23.042Z,77.88
2019-02-21T11:28:53.361Z,77.99
2019-02-21T11:31:27.894Z,77.89
2019-02-21T11:33:59.080Z,78.34
2019-02-21T11:36:30.905Z,78.12
2019-02-21T11:39:01.149Z,78.90
2019-02-21T11:41:35.379Z,78.75
2019-02-21T11:44:07.414Z,79.05
2019-02-21T11:46:38.423Z,79.40
2019-02-21T11:49:08.851Z,78.75
2019-02-21T11:51:40.970Z,78.54
2019-02-21T11:54:15.955Z,78.72
2019-02-21T11:56:52.997Z,78.81
2019-02-21T11:59:24.156Z,78.39
2019-02-21T12:01:55.315Z,78.88
2019-02-21T12:04:25.598Z,78.76
2019-02-21T12:06:55.848Z,78.95
2019-02-21T12:09:26.174Z,79.03
2019-02-21T12:11:58.011Z,78.44
2019-02-21T12:14:28.275Z,77.87
2019-02-21T12:17:01.360Z,78.50
2019-02-21T12:19:31.611Z,78.68
2019-02-21T12:22:01.936Z,78.18
2019-02-21T12:24:32.185Z,79.08
2019-02-21T12:27:02.433Z,78.83
2019-02-21T12:29:36.146Z,78.76
2019-02-21T12:32:06.397Z,78.69
2019-02-21T12:34:37.985Z,78.37
2019-02-21T12:37:08.902Z,78.62
2019-02-21T12:39:39.150Z,77.98
2019-02-21T12:42:09.789Z,78.14
2019-02-21T12:44:40.074Z,78.00
2019-02-21T12:47:10.316Z,78.49
2019-02-21T12:49:40.573Z,77.84
2019-02-21T12:52:10.813Z,78.10
2019-02-21T12:54:41.085Z,78.01
2019-02-21T12:57:13.162Z,77.96
2019-02-21T12:59:43.386Z,78.17
2019-02-21T13:02:13.790Z,78.53
2019-02-21T13:04:44.049Z,78.46
2019-02-21T13:07:15.291Z,78.61
2019-02-21T13:09:46.618Z,78.14
2019-02-21T13:12:17.211Z,78.73
2019-02-21T13:14:47.453Z,78.79
2019-02-21T13:17:26.214Z,78.92
2019-02-21T13:19:56.444Z,78.79
2019-02-21T13:22:26.748Z,79.16
2019-02-21T13:24:57.181Z,78.91
2019-02-21T13:27:27.586Z,79.00
2019-02-21T13:29:58.175Z,78.97
2019-02-21T13:32:28.501Z,78.66
2019-02-21T13:35:00.441Z,78.72
2019-02-21T13:37:30.745Z,78.37
2019-02-21T13:40:02.197Z,78.75
2019-02-21T13:42:37.746Z,78.53
2019-02-21T13:45:09.837Z,79.25
2019-02-21T13:47:40.526Z,78.86
2019-02-21T13:50:18.601Z,78.70
2019-02-21T13:52:51.578Z,79.22
2019-02-21T13:55:25.348Z,78.90
2019-02-21T13:57:55.616Z,78.83
2019-02-21T14:00:25.852Z,79.00
2019-02-21T14:02:56.125Z,79.01
2019-02-21T14:05:27.374Z,78.99
2019-02-21T14:07:59.487Z,78.96
2019-02-21T14:10:29.783Z,78.86
2019-02-21T14:13:01.113Z,79.16
2019-02-21T14:15:33.058Z,78.93
2019-02-21T14:18:03.470Z,79.12
2019-02-21T14:20:44.590Z,79.18
2019-02-21T14:23:06.115Z,79.48
2019-02-21T14:25:40.664Z,79.65
2019-02-21T14:28:09.892Z,79.54
2019-02-21T14:30:43.180Z,79.50
2019-02-21T14:33:17.526Z,79.47
2019-02-21T14:35:47.897Z,79.55
2019-02-21T14:38:27.494Z,79.87
2019-02-21T14:40:51.698Z,79.83
2019-02-21T14:43:21.996Z,80.07
2019-02-21T14:45:52.302Z,80.29
2019-02-21T14:48:26.624Z,80.12
2019-02-21T14:50:59.425Z,80.02
2019-02-21T14:53:30.570Z,80.17
2019-02-21T14:56:03.236Z,80.31
2019-02-21T14:58:34.403Z,80.15
2019-02-21T15:01:05.044Z,80.17
2019-02-21T15:03:35.303Z,79.96
2019-02-21T15:06:08.291Z,79.98
2019-02-21T15:08:38.562Z,80.09
2019-02-21T15:11:08.880Z,80.06
2019-02-21T15:13:40.620Z,80.14
2019-02-21T15:16:10.876Z,80.11
2019-02-21T15:18:42.508Z,80.18
2019-02-21T15:21:12.741Z,80.36
2019-02-21T15:23:43.015Z,80.61
2019-02-21T15:26:13.278Z,80.53
2019-02-21T15:28:44.740Z,80.50
2019-02-21T15:31:14.997Z,80.59
2019-02-21T15:33:46.728Z,80.49
2019-02-21T15:36:17.063Z,80.72
2019-02-21T15:38:47.328Z,80.72
2019-02-21T15:41:17.708Z,80.51
2019-02-21T15:43:49.157Z,80.47
2019-02-21T15:46:19.412Z,80.45
2019-02-21T15:48:49.701Z,80.46
2019-02-21T15:51:19.959Z,80.55
2019-02-21T15:53:50.807Z,80.73
2019-02-21T15:56:21.338Z,80.90
2019-02-21T15:58:53.326Z,81.03
2019-02-21T16:01:25.008Z,81.07
2019-02-21T16:03:55.514Z,80.99
2019-02-21T16:06:25.769Z,80.89
2019-02-21T16:08:58.388Z,80.80
2019-02-21T16:11:29.998Z,80.81
2019-02-21T16:14:03.440Z,81.00
2019-02-21T16:16:32.480Z,80.83
2019-02-21T16:19:04.026Z,80.83
2019-02-21T16:21:34.561Z,80.91
2019-02-21T16:24:04.820Z,80.92
2019-02-21T16:26:35.213Z,81.24
2019-02-21T16:29:06.862Z,81.14
2019-02-21T16:31:37.173Z,81.09
2019-02-21T16:34:09.317Z,81.24
2019-02-21T16:36:39.372Z,81.11
2019-02-21T16:39:11.093Z,81.05
2019-02-21T16:41:41.663Z,81.17
2019-02-21T16:44:15.092Z,81.24
2019-02-21T16:46:46.529Z,81.40
2019-02-21T16:49:16.755Z,81.44
2019-02-21T16:51:47.301Z,81.47
2019-02-21T16:54:18.552Z,81.46
2019-02-21T16:56:49.148Z,81.58
2019-02-21T16:59:20.521Z,81.58
2019-02-21T17:01:50.954Z,81.33
2019-02-21T17:04:22.380Z,81.32
2019-02-21T17:06:52.657Z,81.31
2019-02-21T17:09:23.475Z,81.44
2019-02-21T17:11:55.667Z,81.66
2019-02-21T17:14:26.947Z,81.56
2019-02-21T17:16:59.949Z,81.64
2019-02-21T17:19:31.381Z,81.87
2019-02-21T17:22:01.647Z,81.81
2019-02-21T17:24:33.406Z,82.02
2019-02-21T17:27:06.186Z,82.28
2019-02-21T17:29:38.688Z,81.98
2019-02-21T17:32:12.249Z,82.33
2019-02-21T17:34:42.784Z,82.12
2019-02-21T17:37:24.439Z,82.23
2019-02-21T17:39:50.219Z,82.19
2019-02-21T17:42:20.700Z,82.36
2019-02-21T17:44:54.646Z,82.06
2019-02-21T17:47:32.705Z,82.10
2019-02-21T17:50:03.375Z,82.10
2019-02-21T17:52:36.778Z,82.02
2019-02-21T17:55:10.287Z,81.89
2019-02-21T17:57:40.887Z,82.24
2019-02-21T18:00:22.773Z,82.28
2019-02-21T18:02:55.418Z,82.46
2019-02-21T18:05:26.033Z,82.41
2019-02-21T18:08:00.097Z,82.38
2019-02-21T18:10:30.405Z,82.56
2019-02-21T18:13:01.051Z,82.61
2019-02-21T18:15:34.205Z,82.82
2019-02-21T18:18:07.872Z,82.80
2019-02-21T18:20:39.770Z,83.03
2019-02-21T18:23:12.430Z,83.26
2019-02-21T18:25:50.194Z,83.23
2019-02-21T18:28:22.443Z,83.57
2019-02-21T18:30:54.945Z,83.45
2019-02-21T18:33:25.587Z,83.46
2019-02-21T18:35:57.644Z,83.43
2019-02-21T18:38:29.095Z,83.47
2019-02-21T18:41:00.554Z,83.78
2019-02-21T18:43:30.877Z,84.06
2019-02-21T18:46:01.306Z,84.43
2019-02-21T18:48:31.841Z,84.59
2019-02-21T18:51:02.152Z,84.67
2019-02-21T18:53:35.422Z,84.96
2019-02-21T18:56:05.882Z,85.05
2019-02-21T18:58:37.354Z,85.12
2019-02-21T19:01:08.476Z,84.95
2019-02-21T19:03:38.780Z,84.96
2019-02-21T19:06:09.213Z,84.88
2019-02-21T19:08:41.343Z,84.60
2019-02-21T19:11:11.689Z,84.73
2019-02-21T19:13:42.097Z,84.84
2019-02-21T19:16:12.413Z,84.98
2019-02-21T19:18:43.709Z,85.05
2019-02-21T19:21:15.385Z,84.99
2019-02-21T19:23:45.684Z,85.04
2019-02-21T19:26:16.099Z,85.03
2019-02-21T19:28:46.462Z,84.93
2019-02-21T19:31:16.760Z,84.87
2019-02-21T19:33:47.196Z,84.87
2019-02-21T19:36:18.781Z,84.89
2019-02-21T19:38:49.221Z,84.81
2019-02-21T19:41:19.935Z,84.61
2019-02-21T19:43:51.956Z,84.67
2019-02-21T19:46:24.634Z,84.67
2019-02-21T19:48:56.554Z,84.77
2019-02-21T19:51:26.903Z,84.81
2019-02-21T19:53:57.376Z,84.78
2019-02-21T19:56:30.595Z,84.83
2019-02-21T19:59:01.157Z,84.83
2019-02-21T20:01:32.234Z,84.68
2019-02-21T20:04:04.844Z,84.61
2019-02-21T20:06:35.159Z,84.45
2019-02-21T20:09:05.551Z,84.53
2019-02-21T20:11:39.152Z,84.55
2019-02-21T20:14:09.541Z,84.37
2019-02-21T20:16:39.821Z,84.36
2019-02-21T20:19:10.333Z,84.35
2019-02-21T20:21:40.789Z,84.27
2019-02-21T20:24:11.362Z,84.09
2019-02-21T20:26:41.917Z,84.16
2019-02-21T20:29:15.535Z,84.19
2019-02-21T20:31:48.117Z,84.26
2019-02-21T20:34:22.486Z,84.21
2019-02-21T20:36:55.319Z,84.27
2019-02-21T20:39:29.491Z,84.22
2019-02-21T20:42:02.578Z,84.38
2019-02-21T20:44:34.147Z,84.49
2019-02-21T20:47:04.500Z,84.62
2019-02-21T20:49:42.030Z,84.73
2019-02-21T20:52:13.161Z,84.85
2019-02-21T20:54:54.902Z,84.98
2019-02-21T20:57:25.652Z,85.09
2019-02-21T21:00:00.834Z,85.42
2019-02-21T21:02:39.357Z,85.46
2019-02-21T21:05:10.023Z,85.49
2019-02-21T21:07:43.605Z,85.58
2019-02-21T21:10:16.001Z,85.65
2019-02-21T21:12:48.057Z,85.75
2019-02-21T21:15:19.608Z,85.78
2019-02-21T21:17:49.939Z,85.80
2019-02-21T21:20:21.354Z,85.72
2019-02-21T21:22:59.238Z,85.85
2019-02-21T21:25:39.887Z,85.62
2019-02-21T21:28:17.769Z,85.57
2019-02-21T21:30:48.069Z,85.66
2019-02-21T21:33:19.780Z,85.65
2019-02-21T21:35:53.060Z,85.63
2019-02-21T21:38:28.605Z,85.67
2019-02-21T21:40:59.589Z,85.80
2019-02-21T21:43:29.947Z,85.74
2019-02-21T21:46:04.450Z,85.72
2019-02-21T21:48:34.736Z,85.74
2019-02-21T21:51:05.950Z,85.49
2019-02-21T21:53:36.715Z,85.65
2019-02-21T21:56:10.219Z,85.60
2019-02-21T21:58:42.633Z,85.53
2019-02-21T22:01:14.957Z,85.54
2019-02-21T22:03:51.237Z,85.36
2019-02-21T22:06:21.572Z,85.42
2019-02-21T22:09:04.450Z,85.24
2019-02-21T22:11:26.918Z,85.16
2019-02-21T22:13:57.177Z,85.20
2019-02-21T22:16:29.591Z,85.12
2019-02-21T22:19:00.283Z,85.21
2019-02-21T22:21:30.615Z,85.16
2019-02-21T22:24:01.143Z,84.97
2019-02-21T22:26:31.639Z,84.97
2019-02-21T22:29:03.266Z,85.01
2019-02-21T22:31:33.776Z,84.87
2019-02-21T22:34:04.229Z,84.68
2019-02-21T22:36:34.830Z,84.61
2019-02-21T22:39:15.903Z,84.55
2019-02-21T22:41:41.255Z,84.31
2019-02-21T22:44:12.739Z,84.36
2019-02-21T22:46:44.137Z,84.36
2019-02-21T22:49:17.176Z,84.28
2019-02-21T22:51:50.733Z,84.22
2019-02-21T22:54:22.180Z,84.21
2019-02-21T22:56:53.687Z,84.16
2019-02-21T22:59:25.097Z,84.05
2019-02-21T23:01:58.496Z,84.27
2019-02-21T23:04:32.099Z,83.95
2019-02-21T23:07:11.636Z,83.91
2019-02-21T23:09:41.947Z,83.82
2019-02-21T23:12:13.399Z,83.69
2019-02-21T23:14:45.774Z,83.56
2019-02-21T23:17:16.610Z,83.54
2019-02-21T23:19:48.055Z,83.24
2019-02-21T23:22:18.328Z,83.33
2019-02-21T23:24:48.568Z,83.50
2019-02-21T23:27:18.866Z,83.67
2019-02-21T23:29:50.287Z,83.67
2019-02-21T23:32:20.529Z,83.58
2019-02-21T23:34:51.643Z,83.57
2019-02-21T23:37:21.882Z,83.65
2019-02-21T23:39:52.118Z,83.93
2019-02-21T23:42:22.362Z,83.83
2019-02-21T23:44:52.599Z,83.59
2019-02-21T23:47:22.842Z,84.08
2019-02-21T23:49:53.082Z,83.97
2019-02-21T23:52:23.398Z,84.37
2019-02-21T23:54:53.634Z,84.21
2019-02-21T23:57:23.887Z,84.28
2019-02-21T23:59:54.122Z,84.51
